createdAt,value
2023-01-12T00:04:21.340Z,9.27
2023-01-12T00:09:22.897Z,9.25
2023-01-12T00:14:24.475Z,9.25
2023-01-12T00:19:25.942Z,9.20
2023-01-12T00:24:34.456Z,9.19
2023-01-12T00:29:37.109Z,9.24
2023-01-12T00:34:38.560Z,9.23
2023-01-12T00:39:43.059Z,9.26
2023-01-12T00:45:06.035Z,9.31
2023-01-12T00:50:07.873Z,9.36
2023-01-12T00:55:09.462Z,9.39
2023-01-12T01:00:11.451Z,9.38
2023-01-12T01:05:12.989Z,9.37
2023-01-12T01:10:15.670Z,9.37
2023-01-12T01:15:17.169Z,9.36
2023-01-12T01:20:18.703Z,9.31
2023-01-12T01:25:20.122Z,9.31
2023-01-12T01:30:21.543Z,9.33
2023-01-12T01:35:22.981Z,9.35
2023-01-12T01:40:24.438Z,9.40
2023-01-12T01:45:26.811Z,9.46
2023-01-12T01:50:35.007Z,9.52
2023-01-12T01:55:42.159Z,9.60
2023-01-12T02:00:44.252Z,9.65
2023-01-12T02:05:48.898Z,9.68
2023-01-12T02:10:52.668Z,9.71
2023-01-12T02:16:23.085Z,9.70
2023-01-12T02:21:52.896Z,9.63
2023-01-12T02:27:17.795Z,9.58
2023-01-12T02:32:25.733Z,9.55
2023-01-12T02:37:41.122Z,9.53
2023-01-12T02:42:54.901Z,9.54
2023-01-12T02:48:05.519Z,9.56
2023-01-12T02:53:18.630Z,9.55
2023-01-12T02:58:23.166Z,9.49
2023-01-12T03:03:25.775Z,9.42
2023-01-12T03:08:30.429Z,9.36
2023-01-12T03:13:35.984Z,9.29
2023-01-12T03:18:41.647Z,9.27
2023-01-12T03:23:46.113Z,9.28
2023-01-12T03:28:53.732Z,9.29
2023-01-12T03:33:55.713Z,9.33
2023-01-12T03:39:23.182Z,9.34
2023-01-12T03:44:33.877Z,9.33
2023-01-12T03:49:46.016Z,9.31
2023-01-12T03:54:49.758Z,9.31
2023-01-12T03:59:51.292Z,9.30
2023-01-12T04:04:52.716Z,9.32
2023-01-12T04:09:54.174Z,9.32
2023-01-12T04:14:55.657Z,9.36
2023-01-12T04:19:57.081Z,9.41
2023-01-12T04:24:58.486Z,9.48
2023-01-12T04:29:59.911Z,9.50
2023-01-12T04:35:01.332Z,9.53
2023-01-12T04:40:02.929Z,9.54
2023-01-12T04:45:04.748Z,9.57
2023-01-12T04:50:06.823Z,9.57
2023-01-12T04:55:08.644Z,9.57
2023-01-12T05:00:10.785Z,9.54
2023-01-12T05:05:12.242Z,9.51
2023-01-12T05:10:22.489Z,9.41
2023-01-12T05:15:24.071Z,9.35
2023-01-12T05:20:25.522Z,9.26
2023-01-12T05:25:27.027Z,9.16
2023-01-12T05:30:31.510Z,9.15
2023-01-12T05:35:33.360Z,9.16
2023-01-12T05:40:34.780Z,9.20
2023-01-12T05:45:36.612Z,9.29
2023-01-12T05:50:38.157Z,9.31
2023-01-12T05:55:39.869Z,9.40
2023-01-12T06:00:41.338Z,9.47
2023-01-12T06:05:42.938Z,9.51
2023-01-12T06:10:45.435Z,9.54
2023-01-12T06:15:46.994Z,9.66
2023-01-12T06:20:48.550Z,9.73
2023-01-12T06:25:50.046Z,9.78
2023-01-12T06:31:02.746Z,9.86
2023-01-12T06:36:04.967Z,9.98
2023-01-12T06:41:29.129Z,10.05
2023-01-12T06:46:30.770Z,10.08
2023-01-12T06:51:32.237Z,10.12
2023-01-12T06:56:33.920Z,10.13
2023-01-12T07:01:35.492Z,10.14
2023-01-12T07:06:37.011Z,10.18
2023-01-12T07:11:38.491Z,10.21
2023-01-12T07:16:40.252Z,10.23
2023-01-12T07:21:41.812Z,10.21
2023-01-12T07:26:43.326Z,10.15
2023-01-12T07:31:45.434Z,10.16
2023-01-12T07:36:51.480Z,10.16
2023-01-12T07:42:11.614Z,10.21
2023-01-12T07:47:13.085Z,10.24
2023-01-12T07:52:14.997Z,10.27
2023-01-12T07:57:16.485Z,10.21
2023-01-12T08:02:19.328Z,10.21
2023-01-12T08:07:20.871Z,10.20
2023-01-12T08:12:22.381Z,10.21
2023-01-12T08:17:24.327Z,10.22
2023-01-12T08:22:39.829Z,10.20
2023-01-12T08:27:45.476Z,10.24
2023-01-12T08:32:47.289Z,10.28
2023-01-12T08:37:49.006Z,10.32
2023-01-12T08:42:50.481Z,10.37
2023-01-12T08:47:51.910Z,10.41
2023-01-12T08:52:53.523Z,10.49
2023-01-12T08:57:55.705Z,10.52
2023-01-12T09:02:57.195Z,10.54
2023-01-12T09:07:58.642Z,10.54
2023-01-12T09:13:00.061Z,10.57
2023-01-12T09:18:01.600Z,10.62
2023-01-12T09:23:04.364Z,10.69
2023-01-12T09:28:05.793Z,10.76
2023-01-12T09:33:07.217Z,10.86
2023-01-12T09:38:08.656Z,10.94
2023-01-12T09:43:33.630Z,11.00
2023-01-12T09:48:35.081Z,10.99
2023-01-12T09:53:41.909Z,10.98
2023-01-12T09:59:04.022Z,11.04
2023-01-12T10:04:07.089Z,11.25
2023-01-12T10:09:26.817Z,11.99
2023-01-12T10:14:39.297Z,12.24
2023-01-12T10:20:18.532Z,12.17
2023-01-12T10:25:35.495Z,12.73
2023-01-12T10:30:39.571Z,13.14
2023-01-12T10:36:01.741Z,12.93
2023-01-12T10:41:10.808Z,12.95
2023-01-12T10:46:24.185Z,12.93
2023-01-12T10:51:33.557Z,12.57
2023-01-12T10:56:41.894Z,12.37
2023-01-12T11:02:03.414Z,12.36
2023-01-12T11:07:22.907Z,12.40
2023-01-12T11:12:36.608Z,12.33
2023-01-12T11:17:51.194Z,12.32
2023-01-12T11:22:56.588Z,12.48
2023-01-12T11:28:04.135Z,12.57
2023-01-12T11:33:13.288Z,12.77
2023-01-12T11:38:41.099Z,12.94
2023-01-12T11:43:56.151Z,13.17
2023-01-12T11:49:49.895Z,13.07
2023-01-12T11:54:51.749Z,13.39
2023-01-12T12:00:02.225Z,13.16
2023-01-12T12:05:16.342Z,12.83
2023-01-12T12:10:41.508Z,12.46
2023-01-12T12:15:52.107Z,12.52
2023-01-12T12:21:31.395Z,12.67
2023-01-12T12:26:38.197Z,12.61
2023-01-12T12:32:12.691Z,12.63
2023-01-12T12:37:44.771Z,12.63
2023-01-12T12:43:20.196Z,12.59
2023-01-12T12:48:33.074Z,12.52
2023-01-12T12:53:39.739Z,12.39
2023-01-12T12:58:43.494Z,12.28
2023-01-12T13:03:52.537Z,12.31
2023-01-12T13:08:56.823Z,12.54
2023-01-12T13:14:05.713Z,12.64
2023-01-12T13:19:13.573Z,12.66
2023-01-12T13:24:17.249Z,12.63
2023-01-12T13:29:23.665Z,12.63
2023-01-12T13:34:32.218Z,12.66
2023-01-12T13:39:40.781Z,12.64
2023-01-12T13:44:44.454Z,12.61
2023-01-12T13:49:49.440Z,12.55
2023-01-12T13:54:51.665Z,12.56
2023-01-12T14:00:19.734Z,12.46
2023-01-12T14:05:39.553Z,12.39
2023-01-12T14:10:53.294Z,12.33
2023-01-12T14:16:20.774Z,12.30
2023-01-12T14:21:24.206Z,12.34
2023-01-12T14:26:27.235Z,12.34
2023-01-12T14:31:39.349Z,12.27
2023-01-12T14:36:45.905Z,12.16
2023-01-12T14:42:15.992Z,12.10
2023-01-12T14:47:33.841Z,12.10
2023-01-12T14:52:36.245Z,12.08
2023-01-12T14:57:37.789Z,12.08
2023-01-12T15:02:40.983Z,12.03
2023-01-12T15:08:26.734Z,12.01
2023-01-12T15:13:33.021Z,11.95
2023-01-12T15:18:53.971Z,11.91
2023-01-12T15:24:15.250Z,11.87
2023-01-12T15:29:16.754Z,11.80
2023-01-12T15:34:18.285Z,11.70
2023-01-12T15:39:19.825Z,11.69
2023-01-12T15:44:22.014Z,11.70
2023-01-12T15:49:23.428Z,11.67
2023-01-12T15:54:25.145Z,11.68
2023-01-12T15:59:26.567Z,11.70
2023-01-12T16:04:42.869Z,11.74
2023-01-12T16:09:47.645Z,11.76
2023-01-12T16:14:49.120Z,11.80
2023-01-12T16:19:51.059Z,11.82
2023-01-12T16:24:55.647Z,11.84
2023-01-12T16:29:57.345Z,11.84
2023-01-12T16:35:02.061Z,11.81
2023-01-12T16:40:03.747Z,11.71
2023-01-12T16:45:06.195Z,11.60
2023-01-12T16:50:08.117Z,11.55
2023-01-12T16:55:09.667Z,11.53
2023-01-12T17:00:11.730Z,11.57
2023-01-12T17:05:13.176Z,11.56
2023-01-12T17:10:16.031Z,11.53
2023-01-12T17:15:17.604Z,11.56
2023-01-12T17:20:19.951Z,11.56
2023-01-12T17:25:21.591Z,11.55
2023-01-12T17:30:23.039Z,11.52
2023-01-12T17:35:24.613Z,11.47
2023-01-12T17:40:27.338Z,11.46
2023-01-12T17:45:29.321Z,11.48
2023-01-12T17:50:32.741Z,11.48
2023-01-12T17:55:40.003Z,11.44
2023-01-12T18:00:45.149Z,11.42
2023-01-12T18:05:49.951Z,11.42
2023-01-12T18:10:55.017Z,11.41
2023-01-12T18:15:56.471Z,11.34
2023-01-12T18:21:03.939Z,11.31
2023-01-12T18:26:08.891Z,11.35
2023-01-12T18:31:16.654Z,11.36
2023-01-12T18:36:23.335Z,11.36
2023-01-12T18:41:43.458Z,11.36
2023-01-12T18:47:03.464Z,11.40
2023-01-12T18:52:24.467Z,11.42
2023-01-12T18:57:28.300Z,11.46
2023-01-12T19:02:30.089Z,11.46
2023-01-12T19:07:39.236Z,11.46
2023-01-12T19:12:45.842Z,11.52
2023-01-12T19:17:47.392Z,11.56
2023-01-12T19:23:07.529Z,11.56
2023-01-12T19:28:32.731Z,11.61
2023-01-12T19:33:34.171Z,11.63
2023-01-12T19:38:36.349Z,11.62
2023-01-12T19:43:41.064Z,11.63
2023-01-12T19:48:42.604Z,11.65
2023-01-12T19:53:44.096Z,11.69
2023-01-12T19:58:45.742Z,11.69
2023-01-12T20:03:47.557Z,11.70
2023-01-12T20:08:49.138Z,11.71
2023-01-12T20:13:50.792Z,11.72
2023-01-12T20:18:59.389Z,11.74
2023-01-12T20:24:01.460Z,11.78
2023-01-12T20:29:03.799Z,11.80
2023-01-12T20:34:05.389Z,11.80
2023-01-12T20:39:10.987Z,11.81
2023-01-12T20:44:16.919Z,11.82
2023-01-12T20:49:18.594Z,11.81
2023-01-12T20:54:20.113Z,11.79
2023-01-12T20:59:21.576Z,11.80
2023-01-12T21:04:23.019Z,11.78
2023-01-12T21:09:24.557Z,11.79
2023-01-12T21:14:26.280Z,11.81
2023-01-12T21:19:28.092Z,11.80
2023-01-12T21:24:30.392Z,11.83
2023-01-12T21:29:32.267Z,11.81
2023-01-12T21:34:33.712Z,11.82
2023-01-12T21:39:35.312Z,11.83
2023-01-12T21:44:36.805Z,11.86
2023-01-12T21:49:38.219Z,11.88
2023-01-12T21:54:39.677Z,11.92
2023-01-12T21:59:41.090Z,11.95
2023-01-12T22:04:42.567Z,11.97
2023-01-12T22:09:44.078Z,11.97
2023-01-12T22:14:45.469Z,11.96
2023-01-12T22:19:46.873Z,11.99
2023-01-12T22:24:48.341Z,12.01
2023-01-12T22:29:49.874Z,12.07
2023-01-12T22:34:51.289Z,12.09
2023-01-12T22:39:53.124Z,12.10
2023-01-12T22:44:56.387Z,12.15
2023-01-12T22:49:57.897Z,12.14
2023-01-12T22:54:59.374Z,12.16
2023-01-12T23:00:00.783Z,12.14
2023-01-12T23:05:02.560Z,12.10
2023-01-12T23:10:04.730Z,12.07
2023-01-12T23:15:06.738Z,12.02
2023-01-12T23:20:09.306Z,12.01
2023-01-12T23:25:10.833Z,12.01
2023-01-12T23:30:12.690Z,11.99
2023-01-12T23:35:14.581Z,12.00
2023-01-12T23:40:16.499Z,11.99
2023-01-12T23:45:18.060Z,11.97
2023-01-12T23:50:19.702Z,11.96
2023-01-12T23:55:21.337Z,11.96
